Lamco Airport

Jump to: basic info | weather | comments

Related pages: nearby airports | nearby navaids | notams | map

Basic information (top)

Codes: UCN GLLB
Location: lon 5.867000, lat -10.050000, elev 30 ft / 9 m msl
Status: small_airport
Scheduled airline service: no
Links: Wikipedia Mobile

Weather (top)

Current conditions for Roberts International Airport 29nm (53km) NW (rec'd 2014/11/01 07:00Z):

GLRB 010700Z 00000KT 9999 FEW011 FEW020CB BKN100 23/22 Q1012 RMK CB-SE

Airport forecast for Roberts International Airport 29nm (53km) NW (rec'd 2014/11/01 06:54Z):

TAF TAF GLRB 010400Z 0106/0212 24008KT 9000 SCT013 FEW024CB 
      TEMPO 0107/0111 26010KT 8000 RA/TSRA SCT004 BKN016 FEW026CB 
      BECMG 0112/0114 25012KT 9000 BKN018 FEW027CB 
      TEMPO 0115/0119 23008KT 9999 BKN015 FEW025CB

Latest comments (top)

No comments yet for Lamco Airport

More... (top)

See also NOTAMs and nearby airports and navaids, or visit the Lamco Airport page at the main OurAirports website..